sensor_id;sensor_type;location;lat;lon;timestamp;P1;durP1;ratioP1;P2;durP2;ratioP2
66421;SDS011;53228;51.380;0.098;2022-08-19T00:01:56;6.05;;;2.83;;
66421;SDS011;53228;51.380;0.098;2022-08-19T00:04:27;5.10;;;2.40;;
66421;SDS011;53228;51.380;0.098;2022-08-19T00:06:58;6.15;;;2.78;;
66421;SDS011;53228;51.380;0.098;2022-08-19T00:09:26;5.05;;;2.47;;
66421;SDS011;53228;51.380;0.098;2022-08-19T00:11:55;8.15;;;2.90;;
66421;SDS011;53228;51.380;0.098;2022-08-19T00:14:24;7.40;;;2.42;;
66421;SDS011;53228;51.380;0.098;2022-08-19T00:16:53;7.63;;;2.60;;
66421;SDS011;53228;51.380;0.098;2022-08-19T00:19:23;6.57;;;2.33;;
66421;SDS011;53228;51.380;0.098;2022-08-19T00:21:51;6.13;;;2.53;;
66421;SDS011;53228;51.380;0.098;2022-08-19T00:24:20;3.65;;;2.40;;
66421;SDS011;53228;51.380;0.098;2022-08-19T00:26:49;5.88;;;2.50;;
66421;SDS011;53228;51.380;0.098;2022-08-19T00:29:18;3.78;;;2.35;;
66421;SDS011;53228;51.380;0.098;2022-08-19T00:31:47;3.85;;;2.45;;
66421;SDS011;53228;51.380;0.098;2022-08-19T00:34:17;5.97;;;2.55;;
66421;SDS011;53228;51.380;0.098;2022-08-19T00:36:45;5.60;;;2.25;;
66421;SDS011;53228;51.380;0.098;2022-08-19T00:39:13;4.50;;;2.53;;
66421;SDS011;53228;51.380;0.098;2022-08-19T00:41:46;5.72;;;2.28;;
66421;SDS011;53228;51.380;0.098;2022-08-19T00:44:17;2.75;;;2.05;;
66421;SDS011;53228;51.380;0.098;2022-08-19T00:46:54;4.15;;;2.40;;
66421;SDS011;53228;51.380;0.098;2022-08-19T00:52:02;3.22;;;2.15;;
66421;SDS011;53228;51.380;0.098;2022-08-19T00:54:35;4.63;;;2.30;;
66421;SDS011;53228;51.380;0.098;2022-08-19T00:57:05;4.47;;;2.47;;
66421;SDS011;53228;51.380;0.098;2022-08-19T00:59:36;5.32;;;2.30;;
66421;SDS011;53228;51.380;0.098;2022-08-19T01:02:26;2.95;;;2.13;;
66421;SDS011;53228;51.380;0.098;2022-08-19T01:04:55;5.80;;;2.28;;
66421;SDS011;53228;51.380;0.098;2022-08-19T01:07:23;7.10;;;2.47;;
66421;SDS011;53228;51.380;0.098;2022-08-19T01:09:51;4.63;;;2.25;;
66421;SDS011;53228;51.380;0.098;2022-08-19T01:12:20;3.85;;;2.00;;
66421;SDS011;53228;51.380;0.098;2022-08-19T01:14:48;2.50;;;1.90;;
66421;SDS011;53228;51.380;0.098;2022-08-19T01:17:17;2.40;;;2.17;;
66421;SDS011;53228;51.380;0.098;2022-08-19T01:19:46;5.22;;;2.38;;
66421;SDS011;53228;51.380;0.098;2022-08-19T01:25:00;6.22;;;2.47;;
66421;SDS011;53228;51.380;0.098;2022-08-19T01:27:41;4.10;;;2.50;;
66421;SDS011;53228;51.380;0.098;2022-08-19T01:30:13;6.80;;;2.47;;
66421;SDS011;53228;51.380;0.098;2022-08-19T01:32:51;5.25;;;2.83;;
66421;SDS011;53228;51.380;0.098;2022-08-19T01:35:20;7.30;;;3.03;;
66421;SDS011;53228;51.380;0.098;2022-08-19T01:37:51;3.85;;;2.97;;
66421;SDS011;53228;51.380;0.098;2022-08-19T01:40:22;4.20;;;3.20;;
66421;SDS011;53228;51.380;0.098;2022-08-19T01:42:53;8.52;;;3.45;;
66421;SDS011;53228;51.380;0.098;2022-08-19T01:45:22;7.60;;;3.38;;
66421;SDS011;53228;51.380;0.098;2022-08-19T01:47:52;5.45;;;3.80;;
66421;SDS011;53228;51.380;0.098;2022-08-19T01:50:31;5.85;;;3.72;;
66421;SDS011;53228;51.380;0.098;2022-08-19T01:53:01;8.40;;;4.28;;
66421;SDS011;53228;51.380;0.098;2022-08-19T01:55:38;6.57;;;3.95;;
66421;SDS011;53228;51.380;0.098;2022-08-19T01:58:13;6.50;;;4.22;;
66421;SDS011;53228;51.380;0.098;2022-08-19T02:00:44;9.45;;;4.47;;
66421;SDS011;53228;51.380;0.098;2022-08-19T02:03:12;9.82;;;5.30;;
66421;SDS011;53228;51.380;0.098;2022-08-19T02:05:40;6.95;;;4.45;;
66421;SDS011;53228;51.380;0.098;2022-08-19T02:08:09;6.75;;;4.63;;
66421;SDS011;53228;51.380;0.098;2022-08-19T02:10:41;7.57;;;4.20;;
66421;SDS011;53228;51.380;0.098;2022-08-19T02:13:11;6.82;;;4.30;;
66421;SDS011;53228;51.380;0.098;2022-08-19T02:15:40;7.50;;;4.60;;
66421;SDS011;53228;51.380;0.098;2022-08-19T02:18:08;7.57;;;4.40;;
66421;SDS011;53228;51.380;0.098;2022-08-19T02:20:36;8.75;;;3.92;;
66421;SDS011;53228;51.380;0.098;2022-08-19T02:23:06;6.00;;;3.97;;
66421;SDS011;53228;51.380;0.098;2022-08-19T02:25:42;7.05;;;3.97;;
66421;SDS011;53228;51.380;0.098;2022-08-19T02:28:11;8.38;;;4.40;;
66421;SDS011;53228;51.380;0.098;2022-08-19T02:30:45;7.68;;;4.13;;
66421;SDS011;53228;51.380;0.098;2022-08-19T02:33:14;6.65;;;4.05;;
66421;SDS011;53228;51.380;0.098;2022-08-19T02:35:43;7.78;;;4.25;;
66421;SDS011;53228;51.380;0.098;2022-08-19T02:40:53;11.00;;;4.28;;
66421;SDS011;53228;51.380;0.098;2022-08-19T02:43:24;8.00;;;4.13;;
66421;SDS011;53228;51.380;0.098;2022-08-19T02:45:53;6.47;;;4.38;;
66421;SDS011;53228;51.380;0.098;2022-08-19T02:48:22;9.63;;;4.72;;
66421;SDS011;53228;51.380;0.098;2022-08-19T02:50:52;9.30;;;4.30;;
66421;SDS011;53228;51.380;0.098;2022-08-19T02:53:23;11.25;;;4.43;;
66421;SDS011;53228;51.380;0.098;2022-08-19T02:55:53;7.32;;;4.15;;
66421;SDS011;53228;51.380;0.098;2022-08-19T02:58:22;7.85;;;4.13;;
66421;SDS011;53228;51.380;0.098;2022-08-19T03:00:52;5.85;;;4.10;;
66421;SDS011;53228;51.380;0.098;2022-08-19T03:03:22;7.75;;;4.00;;
66421;SDS011;53228;51.380;0.098;2022-08-19T03:05:50;6.05;;;3.50;;
66421;SDS011;53228;51.380;0.098;2022-08-19T03:08:24;5.20;;;3.90;;
66421;SDS011;53228;51.380;0.098;2022-08-19T03:10:52;5.32;;;3.85;;
66421;SDS011;53228;51.380;0.098;2022-08-19T03:13:21;5.65;;;3.70;;
66421;SDS011;53228;51.380;0.098;2022-08-19T03:15:50;5.68;;;3.38;;
66421;SDS011;53228;51.380;0.098;2022-08-19T03:18:18;5.53;;;3.53;;
66421;SDS011;53228;51.380;0.098;2022-08-19T03:20:50;5.85;;;3.33;;
66421;SDS011;53228;51.380;0.098;2022-08-19T03:23:23;6.05;;;4.30;;
66421;SDS011;53228;51.380;0.098;2022-08-19T03:25:53;6.90;;;3.63;;
66421;SDS011;53228;51.380;0.098;2022-08-19T03:28:42;4.90;;;4.40;;
66421;SDS011;53228;51.380;0.098;2022-08-19T03:31:24;8.27;;;4.47;;
66421;SDS011;53228;51.380;0.098;2022-08-19T03:34:25;6.60;;;5.05;;
66421;SDS011;53228;51.380;0.098;2022-08-19T03:36:56;7.75;;;4.93;;
66421;SDS011;53228;51.380;0.098;2022-08-19T03:39:25;7.85;;;5.07;;
66421;SDS011;53228;51.380;0.098;2022-08-19T03:41:54;7.47;;;4.95;;
66421;SDS011;53228;51.380;0.098;2022-08-19T03:44:49;9.32;;;5.22;;
66421;SDS011;53228;51.380;0.098;2022-08-19T03:47:17;8.68;;;4.97;;
66421;SDS011;53228;51.380;0.098;2022-08-19T03:49:45;9.77;;;4.97;;
66421;SDS011;53228;51.380;0.098;2022-08-19T03:52:14;7.07;;;4.97;;
66421;SDS011;53228;51.380;0.098;2022-08-19T03:54:42;5.35;;;4.15;;
66421;SDS011;53228;51.380;0.098;2022-08-19T03:57:10;8.15;;;5.07;;
66421;SDS011;53228;51.380;0.098;2022-08-19T03:59:38;8.32;;;5.45;;
66421;SDS011;53228;51.380;0.098;2022-08-19T04:02:07;6.25;;;4.35;;
66421;SDS011;53228;51.380;0.098;2022-08-19T04:04:38;10.25;;;5.10;;
66421;SDS011;53228;51.380;0.098;2022-08-19T04:07:11;6.53;;;4.43;;
66421;SDS011;53228;51.380;0.098;2022-08-19T04:09:42;10.23;;;4.95;;
66421;SDS011;53228;51.380;0.098;2022-08-19T04:12:10;7.65;;;4.68;;
66421;SDS011;53228;51.380;0.098;2022-08-19T04:14:38;8.10;;;4.30;;
66421;SDS011;53228;51.380;0.098;2022-08-19T04:17:06;5.50;;;4.22;;
66421;SDS011;53228;51.380;0.098;2022-08-19T04:19:35;8.43;;;4.55;;
66421;SDS011;53228;51.380;0.098;2022-08-19T04:22:03;8.43;;;5.10;;
66421;SDS011;53228;51.380;0.098;2022-08-19T04:24:32;9.77;;;4.80;;
66421;SDS011;53228;51.380;0.098;2022-08-19T04:29:30;9.50;;;5.00;;
66421;SDS011;53228;51.380;0.098;2022-08-19T04:31:59;8.15;;;4.72;;
66421;SDS011;53228;51.380;0.098;2022-08-19T04:34:36;11.95;;;5.18;;
66421;SDS011;53228;51.380;0.098;2022-08-19T04:37:24;7.20;;;4.95;;
66421;SDS011;53228;51.380;0.098;2022-08-19T04:40:01;8.45;;;5.43;;
66421;SDS011;53228;51.380;0.098;2022-08-19T04:42:49;7.90;;;4.88;;
66421;SDS011;53228;51.380;0.098;2022-08-19T04:45:17;10.13;;;5.70;;
66421;SDS011;53228;51.380;0.098;2022-08-19T04:47:48;8.93;;;5.40;;
66421;SDS011;53228;51.380;0.098;2022-08-19T04:50:39;11.35;;;5.88;;
66421;SDS011;53228;51.380;0.098;2022-08-19T04:53:09;7.00;;;5.68;;
66421;SDS011;53228;51.380;0.098;2022-08-19T04:55:40;12.88;;;6.50;;
66421;SDS011;53228;51.380;0.098;2022-08-19T04:58:09;7.75;;;5.85;;
66421;SDS011;53228;51.380;0.098;2022-08-19T05:00:38;7.57;;;5.35;;
66421;SDS011;53228;51.380;0.098;2022-08-19T05:03:07;7.25;;;5.70;;
66421;SDS011;53228;51.380;0.098;2022-08-19T05:05:41;8.05;;;4.90;;
66421;SDS011;53228;51.380;0.098;2022-08-19T05:08:15;9.35;;;5.57;;
66421;SDS011;53228;51.380;0.098;2022-08-19T05:10:57;7.65;;;5.47;;
66421;SDS011;53228;51.380;0.098;2022-08-19T05:13:25;5.00;;;4.53;;
66421;SDS011;53228;51.380;0.098;2022-08-19T05:15:55;5.53;;;4.70;;
66421;SDS011;53228;51.380;0.098;2022-08-19T05:18:25;5.38;;;4.88;;
66421;SDS011;53228;51.380;0.098;2022-08-19T05:21:12;6.20;;;4.90;;
66421;SDS011;53228;51.380;0.098;2022-08-19T05:24:01;6.30;;;4.05;;
66421;SDS011;53228;51.380;0.098;2022-08-19T05:26:30;8.27;;;4.43;;
66421;SDS011;53228;51.380;0.098;2022-08-19T05:28:57;5.75;;;3.80;;
66421;SDS011;53228;51.380;0.098;2022-08-19T05:31:26;4.65;;;3.47;;
66421;SDS011;53228;51.380;0.098;2022-08-19T05:33:53;4.68;;;3.67;;
66421;SDS011;53228;51.380;0.098;2022-08-19T05:36:21;8.23;;;3.58;;
66421;SDS011;53228;51.380;0.098;2022-08-19T05:38:48;3.53;;;3.22;;
66421;SDS011;53228;51.380;0.098;2022-08-19T05:41:16;3.30;;;3.05;;
66421;SDS011;53228;51.380;0.098;2022-08-19T05:43:44;5.20;;;3.15;;
66421;SDS011;53228;51.380;0.098;2022-08-19T05:46:17;4.90;;;3.10;;
66421;SDS011;53228;51.380;0.098;2022-08-19T05:48:54;5.40;;;2.92;;
66421;SDS011;53228;51.380;0.098;2022-08-19T05:51:23;3.00;;;2.63;;
66421;SDS011;53228;51.380;0.098;2022-08-19T05:53:55;5.13;;;2.60;;
66421;SDS011;53228;51.380;0.098;2022-08-19T05:56:23;4.93;;;2.00;;
66421;SDS011;53228;51.380;0.098;2022-08-19T05:58:51;4.88;;;2.20;;
66421;SDS011;53228;51.380;0.098;2022-08-19T06:01:21;1.98;;;1.50;;
66421;SDS011;53228;51.380;0.098;2022-08-19T06:03:48;2.95;;;1.63;;
66421;SDS011;53228;51.380;0.098;2022-08-19T06:06:16;2.70;;;1.52;;
66421;SDS011;53228;51.380;0.098;2022-08-19T06:08:44;2.15;;;1.35;;
66421;SDS011;53228;51.380;0.098;2022-08-19T06:14:11;1.95;;;0.90;;
66421;SDS011;53228;51.380;0.098;2022-08-19T06:16:42;1.05;;;0.82;;
66421;SDS011;53228;51.380;0.098;2022-08-19T06:19:12;2.70;;;1.20;;
66421;SDS011;53228;51.380;0.098;2022-08-19T06:21:43;1.77;;;0.80;;
66421;SDS011;53228;51.380;0.098;2022-08-19T06:24:14;2.15;;;0.70;;
66421;SDS011;53228;51.380;0.098;2022-08-19T06:26:44;0.95;;;0.47;;
66421;SDS011;53228;51.380;0.098;2022-08-19T06:29:15;1.55;;;0.57;;
66421;SDS011;53228;51.380;0.098;2022-08-19T06:31:51;0.80;;;0.50;;
66421;SDS011;53228;51.380;0.098;2022-08-19T06:34:21;0.57;;;0.40;;
66421;SDS011;53228;51.380;0.098;2022-08-19T06:36:50;0.38;;;0.32;;
66421;SDS011;53228;51.380;0.098;2022-08-19T06:39:21;1.40;;;0.30;;
66421;SDS011;53228;51.380;0.098;2022-08-19T06:41:54;1.65;;;0.35;;
66421;SDS011;53228;51.380;0.098;2022-08-19T06:44:29;0.68;;;0.30;;
66421;SDS011;53228;51.380;0.098;2022-08-19T06:47:06;0.30;;;0.30;;
66421;SDS011;53228;51.380;0.098;2022-08-19T06:49:49;0.77;;;0.30;;
66421;SDS011;53228;51.380;0.098;2022-08-19T06:52:16;0.32;;;0.30;;
66421;SDS011;53228;51.380;0.098;2022-08-19T06:54:44;0.30;;;0.30;;
66421;SDS011;53228;51.380;0.098;2022-08-19T06:57:23;0.40;;;0.38;;
66421;SDS011;53228;51.380;0.098;2022-08-19T06:59:51;0.43;;;0.30;;
66421;SDS011;53228;51.380;0.098;2022-08-19T07:02:19;0.73;;;0.50;;
66421;SDS011;53228;51.380;0.098;2022-08-19T07:04:48;0.52;;;0.30;;
66421;SDS011;53228;51.380;0.098;2022-08-19T07:07:19;2.33;;;0.40;;
66421;SDS011;53228;51.380;0.098;2022-08-19T07:09:48;0.30;;;0.30;;
66421;SDS011;53228;51.380;0.098;2022-08-19T07:12:26;1.08;;;0.38;;
66421;SDS011;53228;51.380;0.098;2022-08-19T07:14:57;2.08;;;0.45;;
66421;SDS011;53228;51.380;0.098;2022-08-19T07:17:26;0.25;;;0.22;;
66421;SDS011;53228;51.380;0.098;2022-08-19T07:19:54;0.43;;;0.28;;
66421;SDS011;53228;51.380;0.098;2022-08-19T07:22:22;1.52;;;0.50;;
66421;SDS011;53228;51.380;0.098;2022-08-19T07:24:50;1.55;;;0.60;;
66421;SDS011;53228;51.380;0.098;2022-08-19T07:27:18;0.90;;;0.50;;
66421;SDS011;53228;51.380;0.098;2022-08-19T07:29:52;5.43;;;0.32;;
66421;SDS011;53228;51.380;0.098;2022-08-19T07:32:23;0.45;;;0.45;;
66421;SDS011;53228;51.380;0.098;2022-08-19T07:34:54;1.00;;;0.38;;
66421;SDS011;53228;51.380;0.098;2022-08-19T07:37:24;0.45;;;0.45;;
66421;SDS011;53228;51.380;0.098;2022-08-19T07:39:59;0.95;;;0.43;;
66421;SDS011;53228;51.380;0.098;2022-08-19T07:42:28;1.00;;;0.40;;
66421;SDS011;53228;51.380;0.098;2022-08-19T07:44:57;0.65;;;0.32;;
66421;SDS011;53228;51.380;0.098;2022-08-19T07:47:25;0.43;;;0.30;;
66421;SDS011;53228;51.380;0.098;2022-08-19T07:50:15;3.53;;;0.40;;
66421;SDS011;53228;51.380;0.098;2022-08-19T07:52:43;1.70;;;0.40;;
66421;SDS011;53228;51.380;0.098;2022-08-19T07:55:15;2.05;;;0.30;;
66421;SDS011;53228;51.380;0.098;2022-08-19T07:58:05;1.05;;;0.40;;
66421;SDS011;53228;51.380;0.098;2022-08-19T08:00:33;0.88;;;0.40;;
66421;SDS011;53228;51.380;0.098;2022-08-19T08:03:02;0.40;;;0.32;;
66421;SDS011;53228;51.380;0.098;2022-08-19T08:05:30;1.80;;;0.70;;
66421;SDS011;53228;51.380;0.098;2022-08-19T08:08:16;0.82;;;0.40;;
66421;SDS011;53228;51.380;0.098;2022-08-19T08:11:03;1.55;;;0.50;;
66421;SDS011;53228;51.380;0.098;2022-08-19T08:13:34;0.95;;;0.30;;
66421;SDS011;53228;51.380;0.098;2022-08-19T08:16:05;1.10;;;0.30;;
66421;SDS011;53228;51.380;0.098;2022-08-19T08:18:40;2.97;;;0.47;;
66421;SDS011;53228;51.380;0.098;2022-08-19T08:21:19;0.40;;;0.40;;
66421;SDS011;53228;51.380;0.098;2022-08-19T08:23:46;0.47;;;0.40;;
66421;SDS011;53228;51.380;0.098;2022-08-19T08:26:14;0.50;;;0.50;;
66421;SDS011;53228;51.380;0.098;2022-08-19T08:28:45;1.42;;;0.47;;
66421;SDS011;53228;51.380;0.098;2022-08-19T08:31:15;1.05;;;0.32;;
66421;SDS011;53228;51.380;0.098;2022-08-19T08:33:43;1.98;;;0.70;;
66421;SDS011;53228;51.380;0.098;2022-08-19T08:36:11;1.20;;;0.32;;
66421;SDS011;53228;51.380;0.098;2022-08-19T08:38:43;1.20;;;0.35;;
66421;SDS011;53228;51.380;0.098;2022-08-19T08:41:50;0.80;;;0.40;;
66421;SDS011;53228;51.380;0.098;2022-08-19T08:44:16;2.53;;;0.50;;
66421;SDS011;53228;51.380;0.098;2022-08-19T08:46:49;1.38;;;0.50;;
66421;SDS011;53228;51.380;0.098;2022-08-19T08:52:06;1.35;;;0.32;;
66421;SDS011;53228;51.380;0.098;2022-08-19T08:54:42;0.60;;;0.40;;
66421;SDS011;53228;51.380;0.098;2022-08-19T08:59:54;2.15;;;0.50;;
66421;SDS011;53228;51.380;0.098;2022-08-19T09:02:25;0.30;;;0.30;;
66421;SDS011;53228;51.380;0.098;2022-08-19T09:04:53;1.25;;;0.70;;
66421;SDS011;53228;51.380;0.098;2022-08-19T09:07:41;0.50;;;0.50;;
66421;SDS011;53228;51.380;0.098;2022-08-19T09:10:43;2.00;;;1.08;;
66421;SDS011;53228;51.380;0.098;2022-08-19T09:18:48;1.42;;;0.60;;
66421;SDS011;53228;51.380;0.098;2022-08-19T09:21:21;2.08;;;0.60;;
66421;SDS011;53228;51.380;0.098;2022-08-19T09:23:56;1.77;;;0.40;;
66421;SDS011;53228;51.380;0.098;2022-08-19T09:26:26;0.85;;;0.50;;
66421;SDS011;53228;51.380;0.098;2022-08-19T09:29:13;2.17;;;0.50;;
66421;SDS011;53228;51.380;0.098;2022-08-19T09:31:43;4.47;;;0.40;;
66421;SDS011;53228;51.380;0.098;2022-08-19T09:34:11;0.50;;;0.50;;
66421;SDS011;53228;51.380;0.098;2022-08-19T09:36:48;1.65;;;0.65;;
66421;SDS011;53228;51.380;0.098;2022-08-19T09:39:20;2.90;;;0.47;;
66421;SDS011;53228;51.380;0.098;2022-08-19T09:41:48;1.40;;;0.55;;
66421;SDS011;53228;51.380;0.098;2022-08-19T09:44:19;1.48;;;0.70;;
66421;SDS011;53228;51.380;0.098;2022-08-19T09:46:47;2.15;;;0.85;;
66421;SDS011;53228;51.380;0.098;2022-08-19T09:49:17;2.55;;;0.70;;
66421;SDS011;53228;51.380;0.098;2022-08-19T09:51:49;1.27;;;0.60;;
66421;SDS011;53228;51.380;0.098;2022-08-19T09:54:18;1.98;;;0.70;;
66421;SDS011;53228;51.380;0.098;2022-08-19T09:56:53;0.70;;;0.50;;
66421;SDS011;53228;51.380;0.098;2022-08-19T09:59:22;1.95;;;0.63;;
66421;SDS011;53228;51.380;0.098;2022-08-19T10:01:50;0.65;;;0.43;;
66421;SDS011;53228;51.380;0.098;2022-08-19T10:04:19;1.17;;;0.40;;
66421;SDS011;53228;51.380;0.098;2022-08-19T10:06:49;1.48;;;0.50;;
66421;SDS011;53228;51.380;0.098;2022-08-19T10:09:21;1.52;;;0.95;;
66421;SDS011;53228;51.380;0.098;2022-08-19T10:12:00;2.72;;;0.70;;
66421;SDS011;53228;51.380;0.098;2022-08-19T10:14:30;2.45;;;0.98;;
66421;SDS011;53228;51.380;0.098;2022-08-19T10:17:00;4.93;;;0.93;;
66421;SDS011;53228;51.380;0.098;2022-08-19T10:19:44;2.08;;;0.70;;
66421;SDS011;53228;51.380;0.098;2022-08-19T10:22:21;1.52;;;0.50;;
66421;SDS011;53228;51.380;0.098;2022-08-19T10:24:52;2.17;;;0.70;;
66421;SDS011;53228;51.380;0.098;2022-08-19T10:27:20;1.40;;;0.80;;
66421;SDS011;53228;51.380;0.098;2022-08-19T10:29:48;3.20;;;0.70;;
66421;SDS011;53228;51.380;0.098;2022-08-19T10:32:16;2.90;;;0.60;;
66421;SDS011;53228;51.380;0.098;2022-08-19T10:35:00;2.92;;;0.80;;
66421;SDS011;53228;51.380;0.098;2022-08-19T10:37:36;4.15;;;0.73;;
66421;SDS011;53228;51.380;0.098;2022-08-19T10:40:23;1.85;;;0.68;;
66421;SDS011;53228;51.380;0.098;2022-08-19T10:42:54;1.85;;;0.70;;
66421;SDS011;53228;51.380;0.098;2022-08-19T10:45:23;2.88;;;0.70;;
66421;SDS011;53228;51.380;0.098;2022-08-19T10:47:54;2.42;;;0.65;;
66421;SDS011;53228;51.380;0.098;2022-08-19T10:50:22;1.65;;;0.70;;
66421;SDS011;53228;51.380;0.098;2022-08-19T10:53:09;4.57;;;0.95;;
66421;SDS011;53228;51.380;0.098;2022-08-19T10:55:38;2.30;;;0.90;;
66421;SDS011;53228;51.380;0.098;2022-08-19T10:58:24;2.03;;;0.80;;
66421;SDS011;53228;51.380;0.098;2022-08-19T11:00:54;1.67;;;0.63;;
66421;SDS011;53228;51.380;0.098;2022-08-19T11:03:25;3.10;;;1.42;;
66421;SDS011;53228;51.380;0.098;2022-08-19T11:06:02;1.60;;;0.68;;
66421;SDS011;53228;51.380;0.098;2022-08-19T11:08:32;3.17;;;1.27;;
66421;SDS011;53228;51.380;0.098;2022-08-19T11:13:31;5.78;;;1.27;;
66421;SDS011;53228;51.380;0.098;2022-08-19T11:16:04;3.55;;;0.95;;
66421;SDS011;53228;51.380;0.098;2022-08-19T11:18:43;2.35;;;0.98;;
66421;SDS011;53228;51.380;0.098;2022-08-19T11:21:17;2.63;;;0.80;;
66421;SDS011;53228;51.380;0.098;2022-08-19T11:23:48;3.78;;;1.02;;
66421;SDS011;53228;51.380;0.098;2022-08-19T11:26:18;3.00;;;0.70;;
66421;SDS011;53228;51.380;0.098;2022-08-19T11:28:47;4.85;;;0.80;;
66421;SDS011;53228;51.380;0.098;2022-08-19T11:31:17;2.25;;;0.75;;
66421;SDS011;53228;51.380;0.098;2022-08-19T11:33:46;1.77;;;0.63;;
66421;SDS011;53228;51.380;0.098;2022-08-19T11:36:18;2.47;;;0.93;;
66421;SDS011;53228;51.380;0.098;2022-08-19T11:38:48;3.58;;;0.80;;
66421;SDS011;53228;51.380;0.098;2022-08-19T11:41:17;2.42;;;0.68;;
66421;SDS011;53228;51.380;0.098;2022-08-19T11:43:47;5.10;;;1.13;;
66421;SDS011;53228;51.380;0.098;2022-08-19T11:46:15;3.53;;;1.10;;
66421;SDS011;53228;51.380;0.098;2022-08-19T11:48:44;3.35;;;0.98;;
66421;SDS011;53228;51.380;0.098;2022-08-19T11:51:13;4.85;;;1.25;;
66421;SDS011;53228;51.380;0.098;2022-08-19T11:53:42;2.70;;;0.75;;
66421;SDS011;53228;51.380;0.098;2022-08-19T11:56:10;1.45;;;0.88;;
66421;SDS011;53228;51.380;0.098;2022-08-19T11:58:39;3.22;;;1.10;;
66421;SDS011;53228;51.380;0.098;2022-08-19T12:01:09;4.90;;;1.20;;
66421;SDS011;53228;51.380;0.098;2022-08-19T12:03:39;4.63;;;1.10;;
66421;SDS011;53228;51.380;0.098;2022-08-19T12:06:08;3.88;;;1.00;;
66421;SDS011;53228;51.380;0.098;2022-08-19T12:08:40;4.28;;;1.08;;
66421;SDS011;53228;51.380;0.098;2022-08-19T12:11:09;5.18;;;1.60;;
66421;SDS011;53228;51.380;0.098;2022-08-19T12:13:38;7.20;;;1.38;;
66421;SDS011;53228;51.380;0.098;2022-08-19T12:16:11;4.75;;;1.38;;
66421;SDS011;53228;51.380;0.098;2022-08-19T12:18:43;6.28;;;1.55;;
66421;SDS011;53228;51.380;0.098;2022-08-19T12:21:17;5.10;;;1.85;;
66421;SDS011;53228;51.380;0.098;2022-08-19T12:23:49;5.18;;;1.58;;
66421;SDS011;53228;51.380;0.098;2022-08-19T12:26:21;6.50;;;1.65;;
66421;SDS011;53228;51.380;0.098;2022-08-19T12:28:50;7.65;;;2.03;;
66421;SDS011;53228;51.380;0.098;2022-08-19T12:31:19;3.42;;;1.52;;
66421;SDS011;53228;51.380;0.098;2022-08-19T12:33:47;6.28;;;2.10;;
66421;SDS011;53228;51.380;0.098;2022-08-19T12:36:15;6.20;;;1.80;;
66421;SDS011;53228;51.380;0.098;2022-08-19T12:38:44;8.38;;;1.95;;
66421;SDS011;53228;51.380;0.098;2022-08-19T12:41:14;6.60;;;1.95;;
66421;SDS011;53228;51.380;0.098;2022-08-19T12:43:45;6.35;;;2.05;;
66421;SDS011;53228;51.380;0.098;2022-08-19T12:46:15;5.70;;;1.58;;
66421;SDS011;53228;51.380;0.098;2022-08-19T12:48:44;5.93;;;1.52;;
66421;SDS011;53228;51.380;0.098;2022-08-19T12:51:17;12.70;;;1.58;;
66421;SDS011;53228;51.380;0.098;2022-08-19T12:53:49;5.85;;;1.83;;
66421;SDS011;53228;51.380;0.098;2022-08-19T12:56:16;6.18;;;1.85;;
66421;SDS011;53228;51.380;0.098;2022-08-19T12:58:49;5.85;;;1.60;;
66421;SDS011;53228;51.380;0.098;2022-08-19T13:01:19;4.07;;;1.30;;
66421;SDS011;53228;51.380;0.098;2022-08-19T13:03:49;6.20;;;1.65;;
66421;SDS011;53228;51.380;0.098;2022-08-19T13:06:21;6.07;;;1.63;;
66421;SDS011;53228;51.380;0.098;2022-08-19T13:08:49;6.63;;;1.65;;
66421;SDS011;53228;51.380;0.098;2022-08-19T13:11:23;9.10;;;1.50;;
66421;SDS011;53228;51.380;0.098;2022-08-19T13:13:52;5.25;;;1.45;;
66421;SDS011;53228;51.380;0.098;2022-08-19T13:16:22;3.13;;;1.17;;
66421;SDS011;53228;51.380;0.098;2022-08-19T13:18:56;9.07;;;1.60;;
66421;SDS011;53228;51.380;0.098;2022-08-19T13:21:26;4.03;;;1.48;;
66421;SDS011;53228;51.380;0.098;2022-08-19T13:23:55;8.63;;;1.60;;
66421;SDS011;53228;51.380;0.098;2022-08-19T13:26:23;6.63;;;1.58;;
66421;SDS011;53228;51.380;0.098;2022-08-19T13:28:51;7.18;;;1.73;;
66421;SDS011;53228;51.380;0.098;2022-08-19T13:31:39;7.13;;;1.58;;
66421;SDS011;53228;51.380;0.098;2022-08-19T13:34:28;4.75;;;1.50;;
66421;SDS011;53228;51.380;0.098;2022-08-19T13:36:59;5.88;;;1.13;;
66421;SDS011;53228;51.380;0.098;2022-08-19T13:39:32;4.03;;;1.27;;
66421;SDS011;53228;51.380;0.098;2022-08-19T13:42:01;6.10;;;1.60;;
66421;SDS011;53228;51.380;0.098;2022-08-19T13:44:31;6.05;;;1.85;;
66421;SDS011;53228;51.380;0.098;2022-08-19T13:47:00;4.65;;;1.20;;
66421;SDS011;53228;51.380;0.098;2022-08-19T13:49:36;8.10;;;1.25;;
66421;SDS011;53228;51.380;0.098;2022-08-19T13:52:04;3.00;;;1.20;;
66421;SDS011;53228;51.380;0.098;2022-08-19T13:54:32;4.50;;;1.27;;
66421;SDS011;53228;51.380;0.098;2022-08-19T13:57:00;6.35;;;1.38;;
66421;SDS011;53228;51.380;0.098;2022-08-19T13:59:29;3.78;;;1.35;;
66421;SDS011;53228;51.380;0.098;2022-08-19T14:01:57;5.68;;;1.52;;
66421;SDS011;53228;51.380;0.098;2022-08-19T14:04:26;8.20;;;1.60;;
66421;SDS011;53228;51.380;0.098;2022-08-19T14:06:54;4.72;;;1.35;;
66421;SDS011;53228;51.380;0.098;2022-08-19T14:09:22;4.65;;;1.48;;
66421;SDS011;53228;51.380;0.098;2022-08-19T14:11:50;7.20;;;1.50;;
66421;SDS011;53228;51.380;0.098;2022-08-19T14:14:18;3.42;;;1.48;;
66421;SDS011;53228;51.380;0.098;2022-08-19T14:16:46;5.00;;;1.30;;
66421;SDS011;53228;51.380;0.098;2022-08-19T14:19:15;5.32;;;1.35;;
66421;SDS011;53228;51.380;0.098;2022-08-19T14:21:43;5.10;;;1.40;;
66421;SDS011;53228;51.380;0.098;2022-08-19T14:24:11;3.08;;;1.38;;
66421;SDS011;53228;51.380;0.098;2022-08-19T14:26:39;3.75;;;1.33;;
66421;SDS011;53228;51.380;0.098;2022-08-19T14:29:07;9.70;;;1.20;;
66421;SDS011;53228;51.380;0.098;2022-08-19T14:31:35;4.32;;;1.27;;
66421;SDS011;53228;51.380;0.098;2022-08-19T14:34:02;3.50;;;1.40;;
66421;SDS011;53228;51.380;0.098;2022-08-19T14:36:30;4.43;;;1.40;;
66421;SDS011;53228;51.380;0.098;2022-08-19T14:39:05;6.20;;;1.50;;
66421;SDS011;53228;51.380;0.098;2022-08-19T14:41:33;4.72;;;1.10;;
66421;SDS011;53228;51.380;0.098;2022-08-19T14:44:01;8.57;;;1.35;;
66421;SDS011;53228;51.380;0.098;2022-08-19T14:46:30;8.25;;;1.42;;
66421;SDS011;53228;51.380;0.098;2022-08-19T14:48:58;5.28;;;1.25;;
66421;SDS011;53228;51.380;0.098;2022-08-19T14:51:35;4.53;;;1.10;;
66421;SDS011;53228;51.380;0.098;2022-08-19T14:54:02;4.25;;;1.20;;
66421;SDS011;53228;51.380;0.098;2022-08-19T14:56:31;7.15;;;1.40;;
66421;SDS011;53228;51.380;0.098;2022-08-19T14:58:59;7.93;;;1.40;;
66421;SDS011;53228;51.380;0.098;2022-08-19T15:03:55;2.92;;;1.10;;
66421;SDS011;53228;51.380;0.098;2022-08-19T15:06:25;8.25;;;1.77;;
66421;SDS011;53228;51.380;0.098;2022-08-19T15:08:53;3.35;;;1.10;;
66421;SDS011;53228;51.380;0.098;2022-08-19T15:11:22;6.47;;;1.30;;
66421;SDS011;53228;51.380;0.098;2022-08-19T15:13:52;4.18;;;1.05;;
66421;SDS011;53228;51.380;0.098;2022-08-19T15:16:20;6.30;;;1.33;;
66421;SDS011;53228;51.380;0.098;2022-08-19T15:18:50;3.88;;;1.15;;
66421;SDS011;53228;51.380;0.098;2022-08-19T15:21:23;5.53;;;1.20;;
66421;SDS011;53228;51.380;0.098;2022-08-19T15:23:54;4.68;;;1.35;;
66421;SDS011;53228;51.380;0.098;2022-08-19T15:26:24;4.15;;;1.30;;
66421;SDS011;53228;51.380;0.098;2022-08-19T15:28:54;8.93;;;1.30;;
66421;SDS011;53228;51.380;0.098;2022-08-19T15:31:23;4.07;;;1.15;;
66421;SDS011;53228;51.380;0.098;2022-08-19T15:33:55;5.45;;;1.27;;
66421;SDS011;53228;51.380;0.098;2022-08-19T15:36:25;5.60;;;0.90;;
66421;SDS011;53228;51.380;0.098;2022-08-19T15:38:54;4.93;;;1.33;;
66421;SDS011;53228;51.380;0.098;2022-08-19T15:41:24;3.25;;;1.17;;
66421;SDS011;53228;51.380;0.098;2022-08-19T15:44:05;5.75;;;1.13;;